Moonray — V7PK7 — position and weather

sailwx.info

Track history (hours):
 
Tides and Currents Weather Stations Pressure Air Temp Water Temp Dewpoint Dewpoint Depression Visibility Wind Speed Wind Dir Waves Ship Positions

Moonray

Last reported at 2017-Oct-31 03:51 UTC. Time now 2017-Nov-19 21:50 UTC.
Position N 20°44' W 017°58'.
Warning: this ship's position is 19 days out of date.

Length 190 m; draft 9.7 m.

Type: Cargo ship. MMSI: 538003250.

Date/timePositionNaut miles runAvg speedWind from/ knotsBaromVisibWave heightAir tempDewpointWater temp
2017-Oct-31 03:51N 20°44' W 017°58'412.8
2017-Oct-31 03:30N 20°48' W 017°58'712.6
2017-Oct-31 02:56N 20°55' W 017°57'5513.1
2017-Oct-30 22:44N 21°46' W 017°34'4713.3
2017-Oct-30 19:12N 22°28' W 017°12'4213.3
2017-Oct-30 16:02N 23°08' W 016°57'413.5
2017-Oct-30 15:42N 23°12' W 016°55'21013.1
2017-Oct-29 23:40N 26°31' W 015°38'213.5
2017-Oct-29 23:30N 26°33' W 015°38'713.7
2017-Oct-29 22:59N 26°39' W 015°35'6713.5
2017-Oct-29 18:01N 27°43' W 015°10'112.9
2017-Oct-29 17:58N 27°43' W 015°10'612.9
2017-Oct-29 17:30N 27°49' W 015°08'613.0
2017-Oct-29 17:00N 27°55' W 015°05'713.2
2017-Oct-29 16:30N 28°01' W 015°03'713.5
2017-Oct-29 16:00N 28°08' W 014°60'713.3
2017-Oct-29 15:30N 28°14' W 014°57'713.2
2017-Oct-29 14:59N 28°20' W 014°55'713.4
2017-Oct-29 14:30N 28°26' W 014°52'613.2
2017-Oct-29 14:00N 28°32' W 014°49'713.3
2017-Oct-29 13:30N 28°38' W 014°46'713.3
2017-Oct-29 13:00N 28°45' W 014°43'713.2
2017-Oct-29 12:30N 28°51' W 014°40'713.1
2017-Oct-29 12:00N 28°57' W 014°37'713.2
2017-Oct-29 11:30N 29°03' W 014°34'713.0
2017-Oct-29 11:00N 29°08' W 014°31'613.0
2017-Oct-29 10:30N 29°14' W 014°28'713.1
2017-Oct-29 10:00N 29°20' W 014°25'713.0
2017-Oct-29 09:30N 29°26' W 014°21'612.8
2017-Oct-29 09:00N 29°32' W 014°19'613.0
2017-Oct-29 08:30N 29°38' W 014°16'813.1
2017-Oct-29 07:56N 29°45' W 014°13'513.0
2017-Oct-29 07:30N 29°50' W 014°10'713.0
2017-Oct-29 07:00N 29°56' W 014°07'612.9
2017-Oct-29 06:30N 30°02' W 014°04'813.0
2017-Oct-29 05:52N 30°10' W 014°00'513.1
2017-Oct-29 05:30N 30°14' W 013°58'713.2
2017-Oct-29 04:57N 30°20' W 013°54'613.2
2017-Oct-29 04:30N 30°26' W 013°51'713.2
2017-Oct-29 04:00N 30°32' W 013°47'13613.3
2017-Oct-28 17:47N 32°36' W 012°43'1013.4
2017-Oct-28 17:05N 32°45' W 012°38'313.4
2017-Oct-28 16:49N 32°48' W 012°36'1213.3
2017-Oct-28 15:54N 32°59' W 012°30'613.2
2017-Oct-28 15:26N 33°05' W 012°27'2013.4
2017-Oct-28 13:58N 33°23' W 012°18'1513.5
2017-Oct-28 12:52N 33°36' W 012°10'513.5
2017-Oct-28 12:29N 33°41' W 012°08'713.4
2017-Oct-28 11:59N 33°47' W 012°05'713.2
2017-Oct-28 11:26N 33°54' W 012°01'613.2
2017-Oct-28 10:59N 33°59' W 011°59'613.3
2017-Oct-28 10:30N 34°05' W 011°56'1113.3
2017-Oct-28 09:41N 34°15' W 011°50'213.4
2017-Oct-28 09:30N 34°17' W 011°49'713.3
2017-Oct-28 09:00N 34°23' W 011°46'1913.2
2017-Oct-28 07:36N 34°40' W 011°36'113.2
2017-Oct-28 07:30N 34°41' W 011°35'613.0
2017-Oct-28 07:00N 34°47' W 011°32'813.0
2017-Oct-28 06:26N 34°54' W 011°29'613.1
2017-Oct-28 06:00N 34°59' W 011°26'612.9
2017-Oct-28 05:30N 35°05' W 011°23'713.1
2017-Oct-28 04:56N 35°12' W 011°19'613.0
2017-Oct-28 04:30N 35°17' W 011°16'713.1
2017-Oct-28 04:00N 35°23' W 011°13'713.4
2017-Oct-28 03:30N 35°29' W 011°10'713.3
2017-Oct-28 02:58N 35°36' W 011°06'813.4
2017-Oct-28 02:24N 35°42' W 011°02'6613.4
2017-Oct-27 21:26N 36°43' W 010°29'5012.5
2017-Oct-27 17:27N 37°29' W 010°04'1712.5
2017-Oct-27 16:04N 37°44' W 009°55'112.6
2017-Oct-27 16:00N 37°45' W 009°54'712.6
2017-Oct-27 15:26N 37°52' W 009°51'612.7
2017-Oct-27 15:00N 37°57' W 009°48'612.7
2017-Oct-27 14:30N 38°02' W 009°44'612.9
2017-Oct-27 14:00N 38°08' W 009°41'612.9
2017-Oct-27 13:30N 38°14' W 009°38'612.8
2017-Oct-27 13:00N 38°20' W 009°34'612.8
2017-Oct-27 12:30N 38°26' W 009°31'612.9
2017-Oct-27 12:00N 38°32' W 009°28'611.6
2017-Oct-27 11:30N 38°37' W 009°24'5 9.1
2017-Oct-27 11:00N 38°40' W 009°19'612.6
2017-Oct-27 10:30N 38°41' W 009°11'4 7.5
2017-Oct-27 10:00N 38°42' W 009°07'0 0.2
2017-Oct-27 09:28N 38°42' W 009°07'0 0.0
2017-Oct-27 08:58N 38°42' W 009°07'0 0.1
2017-Oct-27 08:28N 38°42' W 009°07'0 0.2
2017-Oct-27 07:58N 38°42' W 009°07'0 0.1
2017-Oct-27 07:28N 38°42' W 009°06'0 0.1
2017-Oct-27 06:58N 38°42' W 009°06'0 0.0
2017-Oct-27 06:28N 38°42' W 009°06'0 0.0
2017-Oct-27 05:58N 38°42' W 009°06'0 0.0
2017-Oct-27 05:28N 38°42' W 009°06'0 0.0
2017-Oct-27 04:58N 38°42' W 009°06'0 0.0
2017-Oct-27 04:25N 38°42' W 009°06'0 0.0
2017-Oct-27 03:58N 38°42' W 009°06'0 0.1
2017-Oct-27 03:25N 38°42' W 009°06'0 0.1
2017-Oct-27 02:55N 38°42' W 009°07'0 0.3
2017-Oct-27 02:28N 38°42' W 009°07'0 0.1
2017-Oct-27 01:58N 38°42' W 009°07'0 0.1
2017-Oct-27 01:28N 38°42' W 009°07'0 0.0
2017-Oct-27 00:52N 38°42' W 009°07'0 0.0
2017-Oct-27 00:28N 38°42' W 009°07'0 0.0
2017-Oct-26 23:58N 38°42' W 009°07'0 0.0
2017-Oct-26 23:28N 38°42' W 009°07'0 0.0
2017-Oct-26 22:58N 38°42' W 009°07'0 0.0
2017-Oct-26 22:25N 38°42' W 009°07'0 0.0
2017-Oct-26 21:58N 38°42' W 009°07'0 0.0
2017-Oct-26 21:28N 38°42' W 009°07'0 0.0
2017-Oct-26 20:58N 38°42' W 009°07'0 0.1
2017-Oct-26 20:25N 38°42' W 009°07'0 0.1
2017-Oct-26 19:55N 38°42' W 009°07'0 0.3
2017-Oct-26 19:28N 38°42' W 009°07'0 0.2
2017-Oct-26 18:58N 38°42' W 009°06'0 0.0
2017-Oct-26 18:28N 38°42' W 009°06'0 0.0
2017-Oct-26 17:58N 38°42' W 009°06'0 0.0
2017-Oct-26 17:28N 38°42' W 009°06'0 0.0
2017-Oct-26 16:58N 38°42' W 009°06'0 0.0
2017-Oct-26 16:28N 38°42' W 009°06'0 0.0
2017-Oct-26 15:58N 38°42' W 009°06'0 0.1
2017-Oct-26 15:25N 38°42' W 009°06'0 0.1
2017-Oct-26 14:58N 38°42' W 009°06'0 0.1
2017-Oct-26 14:25N 38°42' W 009°07'0 0.2
2017-Oct-26 13:58N 38°42' W 009°07'0 0.2
2017-Oct-26 13:28N 38°42' W 009°07'0 0.1
2017-Oct-26 12:58N 38°42' W 009°07'0 0.0
2017-Oct-26 12:28N 38°42' W 009°07'0 0.0
2017-Oct-26 11:58N 38°42' W 009°07'0 0.0
2017-Oct-26 11:28N 38°42' W 009°07'0 0.0
2017-Oct-26 10:58N 38°42' W 009°07'0 0.0
2017-Oct-26 10:28N 38°42' W 009°07'0 0.0
2017-Oct-26 09:58N 38°42' W 009°07'0 0.1
2017-Oct-26 09:28N 38°42' W 009°07'0 0.0
2017-Oct-26 08:58N 38°42' W 009°07'0 0.1
2017-Oct-26 08:25N 38°42' W 009°07'0 0.0
2017-Oct-26 07:58N 38°42' W 009°07'0 0.1
2017-Oct-26 07:28N 38°42' W 009°07'0 0.2
2017-Oct-26 06:55N 38°42' W 009°07'0 0.2
2017-Oct-26 06:28N 38°42' W 009°06'0 0.0
2017-Oct-26 05:55N 38°42' W 009°06'0 0.0
2017-Oct-26 05:28N 38°42' W 009°06'0 0.0
2017-Oct-26 04:58N 38°42' W 009°06'0 0.0
2017-Oct-26 04:28N 38°42' W 009°06'0 0.0
2017-Oct-26 03:58N 38°42' W 009°06'0 0.0
2017-Oct-26 03:22N 38°42' W 009°06'0 0.0
2017-Oct-26 02:58N 38°42' W 009°06'0 0.0
2017-Oct-26 02:28N 38°42' W 009°06'0 0.3
2017-Oct-26 01:58N 38°42' W 009°07'0 0.2
2017-Oct-26 01:28N 38°42' W 009°07'0 0.0
2017-Oct-26 00:55N 38°42' W 009°07'0 0.0
2017-Oct-26 00:28N 38°42' W 009°07'0 0.0
2017-Oct-25 23:58N 38°42' W 009°07'0 0.0
2017-Oct-25 23:28N 38°42' W 009°07'0 0.0
2017-Oct-25 22:58N 38°42' W 009°07'0 0.0
2017-Oct-25 22:28N 38°42' W 009°07'0 0.0
2017-Oct-25 21:58N 38°42' W 009°07'0 0.0
2017-Oct-25 21:28N 38°42' W 009°07'0 0.0
2017-Oct-25 20:58N 38°42' W 009°07'0 0.0
2017-Oct-25 20:28N 38°42' W 009°07'0 0.1
2017-Oct-25 19:58N 38°42' W 009°07'0 0.3
2017-Oct-25 19:22N 38°42' W 009°06'0 0.1
2017-Oct-25 18:58N 38°42' W 009°06'0 0.0
2017-Oct-25 18:28N 38°42' W 009°06'0 0.0
2017-Oct-25 17:58N 38°42' W 009°06'0 0.0
2017-Oct-25 17:28N 38°42' W 009°06'0 0.0
2017-Oct-25 16:58N 38°42' W 009°06'0 0.0
2017-Oct-25 16:28N 38°42' W 009°06'0 0.0
2017-Oct-25 15:58N 38°42' W 009°06'0 0.0
2017-Oct-25 15:28N 38°42' W 009°06'0 0.0
2017-Oct-25 14:58N 38°42' W 009°06'0 0.1
2017-Oct-25 14:28N 38°42' W 009°06'0 0.0
2017-Oct-25 13:58N 38°42' W 009°06'0 0.0
2017-Oct-25 13:25N 38°42' W 009°06'0 0.6
2017-Oct-25 12:58N 38°42' W 009°07'0 0.1
2017-Oct-25 12:16N 38°42' W 009°07'0 0.1
2017-Oct-25 11:58N 38°42' W 009°07'0 0.0
2017-Oct-25 11:25N 38°42' W 009°07'0 0.0
2017-Oct-25 10:49N 38°42' W 009°07'0 0.0
2017-Oct-25 10:28N 38°42' W 009°07'0 0.0
2017-Oct-25 09:55N 38°42' W 009°07'0 0.0
2017-Oct-25 09:28N 38°42' W 009°07'0 0.0
2017-Oct-25 08:58N 38°42' W 009°07'0 0.0
2017-Oct-25 08:28N 38°42' W 009°07'0 0.0
2017-Oct-25 07:58N 38°42' W 009°07'0 0.1
2017-Oct-25 07:19N 38°42' W 009°07'0 0.1
2017-Oct-25 06:58N 38°42' W 009°07'0 0.2
2017-Oct-25 06:28N 38°42' W 009°07'0 0.1
2017-Oct-25 05:58N 38°42' W 009°06'0 0.0
2017-Oct-25 05:28N 38°42' W 009°06'0 0.0
2017-Oct-25 04:58N 38°42' W 009°06'0 0.0
2017-Oct-25 04:28N 38°42' W 009°06'0 0.0
2017-Oct-25 03:58N 38°42' W 009°06'0 0.0
2017-Oct-25 03:28N 38°42' W 009°06'0 0.0
2017-Oct-25 02:58N 38°42' W 009°06'0 0.0
2017-Oct-25 02:22N 38°42' W 009°06'0 0.0
2017-Oct-25 01:58N 38°42' W 009°06'0 0.4
2017-Oct-25 01:25N 38°42' W 009°07'0 0.1
2017-Oct-25 00:58N 38°42' W 009°07'0 0.0
2017-Oct-25 00:28N 38°42' W 009°07'0 0.0
2017-Oct-24 23:55N 38°42' W 009°07'0 0.0
2017-Oct-24 23:28N 38°42' W 009°07'0 0.0
2017-Oct-24 22:58N 38°42' W 009°07'0 0.0
2017-Oct-24 22:28N 38°42' W 009°07'0 0.0
2017-Oct-24 21:58N 38°42' W 009°07'0 0.0
2017-Oct-24 21:28N 38°42' W 009°07'0 0.1
2017-Oct-24 20:58N 38°42' W 009°07'0 0.1
2017-Oct-24 20:28N 38°42' W 009°07'0 0.0
2017-Oct-24 19:58N 38°42' W 009°07'0 0.0
2017-Oct-24 19:28N 38°42' W 009°07'0 0.3
2017-Oct-24 18:55N 38°42' W 009°06'0 0.1
2017-Oct-24 18:28N 38°42' W 009°06'0 0.1
2017-Oct-24 17:58N 38°42' W 009°06'0 0.0
2017-Oct-24 17:22N 38°42' W 009°06'0 0.0
2017-Oct-24 16:55N 38°42' W 009°06'0 0.0
2017-Oct-24 16:28N 38°42' W 009°06'0 0.0
2017-Oct-24 15:58N 38°42' W 009°06'0 0.0
2017-Oct-24 15:22N 38°42' W 009°06'0 0.0
2017-Oct-24 14:46N 38°42' W 009°06'0 0.1
2017-Oct-24 14:28N 38°42' W 009°06'0 0.0
2017-Oct-24 13:49N 38°42' W 009°06'0 0.0
2017-Oct-24 13:22N 38°42' W 009°06'0 0.2
2017-Oct-24 12:55N 38°41' W 009°07'0 0.2
2017-Oct-24 12:28N 38°41' W 009°07'0 0.1
2017-Oct-24 11:58N 38°42' W 009°07'0 0.0
2017-Oct-24 11:28N 38°42' W 009°07'0 0.1
2017-Oct-24 10:55N 38°42' W 009°07'0 0.0
2017-Oct-24 10:28N 38°42' W 009°07'0 0.0
2017-Oct-24 09:58N 38°42' W 009°07'0 0.0
2017-Oct-24 09:28N 38°42' W 009°07'0 0.0
2017-Oct-24 08:58N 38°42' W 009°07'0 0.0
2017-Oct-24 08:25N 38°42' W 009°07'0 0.0
2017-Oct-24 07:58N 38°42' W 009°07'0 0.0
2017-Oct-24 07:28N 38°42' W 009°07'0 0.0
2017-Oct-24 06:58N 38°42' W 009°07'0 0.1
2017-Oct-24 06:25N 38°42' W 009°07'0 0.0
2017-Oct-24 05:58N 38°42' W 009°07'0 0.3
2017-Oct-24 05:28N 38°42' W 009°07'0 0.1
2017-Oct-24 04:58N 38°42' W 009°06'0 0.0
2017-Oct-24 04:28N 38°42' W 009°06'0 0.0
2017-Oct-24 03:58N 38°42' W 009°06'0 0.0
2017-Oct-24 03:28N 38°42' W 009°06'0 0.0
2017-Oct-24 02:58N 38°42' W 009°06'0 0.0
2017-Oct-24 02:28N 38°42' W 009°06'0 0.0
2017-Oct-24 01:58N 38°42' W 009°06'0 0.1
2017-Oct-24 01:28N 38°42' W 009°06'0 0.1
2017-Oct-24 00:58N 38°42' W 009°07'0 0.1
2017-Oct-24 00:28N 38°42' W 009°07'0 0.2
2017-Oct-23 23:58N 38°42' W 009°07'0 0.1
2017-Oct-23 23:28N 38°42' W 009°07'0 0.0
2017-Oct-23 22:58N 38°42' W 009°07'0 0.1
2017-Oct-23 22:28N 38°42' W 009°07'0 0.0
2017-Oct-23 21:58N 38°42' W 009°07'0 0.0
2017-Oct-23 21:28N 38°42' W 009°07'0 0.0
2017-Oct-23 20:55N 38°42' W 009°07'0 0.0
2017-Oct-23 20:28N 38°42' W 009°07'0 0.0
2017-Oct-23 19:58N 38°42' W 009°07'0 0.0
2017-Oct-23 19:25N 38°42' W 009°07'0 0.1
2017-Oct-23 18:58N 38°42' W 009°07'0 0.1
2017-Oct-23 18:28N 38°42' W 009°07'0 0.3
2017-Oct-23 17:58N 38°42' W 009°06'0 0.1
2017-Oct-23 17:25N 38°42' W 009°06'0 0.0
2017-Oct-23 16:58N 38°42' W 009°06'0 0.0
2017-Oct-23 16:28N 38°42' W 009°06'0 0.0
2017-Oct-23 15:58N 38°42' W 009°06'0 0.0
2017-Oct-23 15:19N 38°42' W 009°06'0 0.0
2017-Oct-23 14:58N 38°42' W 009°06'0 0.0
2017-Oct-23 14:28N 38°42' W 009°06'0 0.0
2017-Oct-23 13:58N 38°42' W 009°06'0 0.1
2017-Oct-23 13:28N 38°42' W 009°06'0 0.1
2017-Oct-23 12:58N 38°42' W 009°06'0 0.1
2017-Oct-23 12:25N 38°42' W 009°07'0 0.1
2017-Oct-23 11:58N 38°41' W 009°07'0 0.2
2017-Oct-23 11:28N 38°42' W 009°07'0 0.1
2017-Oct-23 10:58N 38°42' W 009°07'0 0.0
2017-Oct-23 10:28N 38°42' W 009°07'0 0.0
2017-Oct-23 09:58N 38°42' W 009°07'0 0.0
2017-Oct-23 09:25N 38°42' W 009°07'0 0.0
2017-Oct-23 08:58N 38°42' W 009°07'0 0.0
2017-Oct-23 08:30N 38°42' W 009°07'0 0.0
2017-Oct-23 08:00N 38°42' W 009°07'0 0.0
2017-Oct-23 07:30N 38°42' W 009°07'0 0.0
2017-Oct-23 07:00N 38°42' W 009°07'0 0.1
2017-Oct-23 06:30N 38°42' W 009°07'0 0.0
2017-Oct-23 06:00N 38°42' W 009°07'0 0.1
2017-Oct-23 05:30N 38°42' W 009°07'0 0.3
2017-Oct-23 05:00N 38°42' W 009°06'0 0.1
2017-Oct-23 04:27N 38°42' W 009°06'0 0.1
2017-Oct-23 04:00N 38°42' W 009°06'0 0.0
2017-Oct-23 03:30N 38°42' W 009°06'0 0.0
2017-Oct-23 03:00N 38°42' W 009°06'0 0.0
2017-Oct-23 02:30N 38°42' W 009°06'0 0.0
2017-Oct-23 02:00N 38°42' W 009°06'0 0.0
2017-Oct-23 01:30N 38°42' W 009°06'0 0.0
2017-Oct-23 01:00N 38°42' W 009°06'0 0.0
2017-Oct-23 00:30N 38°42' W 009°06'0 0.1
2017-Oct-22 23:57N 38°42' W 009°06'0 0.3
2017-Oct-22 23:30N 38°42' W 009°07'0 0.1
2017-Oct-22 23:00N 38°42' W 009°07'0 0.0
2017-Oct-22 22:30N 38°42' W 009°07'0 0.0
2017-Oct-22 22:00N 38°42' W 009°07'0 0.1
2017-Oct-22 21:30N 38°42' W 009°07'0 0.0
2017-Oct-22 21:00N 38°42' W 009°07'0 0.0
2017-Oct-22 20:30N 38°42' W 009°07'0 0.0
2017-Oct-22 20:00N 38°42' W 009°07'0 0.0
2017-Oct-22 19:30N 38°42' W 009°07'0 0.0
2017-Oct-22 19:00N 38°42' W 009°07'0 0.1
2017-Oct-22 18:31N 38°42' W 009°07'2 3.3
2017-Oct-22 18:01N 38°42' W 009°09'510.4
2017-Oct-22 17:30N 38°41' W 009°15'611.5
2017-Oct-22 17:01N 38°38' W 009°22'3 5.4
2017-Oct-22 16:31N 38°39' W 009°25'4 8.7
2017-Oct-22 16:01N 38°35' W 009°26'510.2
2017-Oct-22 15:31N 38°30' W 009°26'5 9.6
2017-Oct-22 15:01N 38°25' W 009°26'5 9.0
2017-Oct-22 14:31N 38°20' W 009°26'5 9.4
2017-Oct-22 14:01N 38°16' W 009°26'4 8.9
2017-Oct-22 13:31N 38°11' W 009°26'5 9.1
2017-Oct-22 13:01N 38°07' W 009°26'5 9.4
2017-Oct-22 12:31N 38°02' W 009°26'5 9.5
2017-Oct-22 12:00N 37°57' W 009°26'5 9.1
2017-Oct-22 11:31N 37°53' W 009°26'4 9.0
2017-Oct-22 11:01N 37°48' W 009°26'4 8.5
2017-Oct-22 10:31N 37°44' W 009°26'4 8.6
2017-Oct-22 10:01N 37°40' W 009°26'7 8.9
2017-Oct-22 09:15N 37°33' W 009°26'2 8.8
2017-Oct-22 09:00N 37°31' W 009°26'8 9.0
2017-Oct-22 08:05N 37°23' W 009°27'1 9.8
2017-Oct-22 08:01N 37°22' W 009°27'18 9.3
2017-Oct-22 06:03N 37°03' W 009°27'0 9.1
2017-Oct-22 06:00N 37°03' W 009°27'6 9.0
2017-Oct-22 05:19N 36°57' W 009°26'3 8.6
2017-Oct-22 05:01N 36°55' W 009°24'10 8.4
2017-Oct-22 03:52N 36°47' W 009°18'4 8.8
2017-Oct-22 03:23N 36°44' W 009°14'14 8.9
2017-Oct-22 01:48N 36°37' W 008°58'3 8.6
2017-Oct-22 01:27N 36°36' W 008°55'17111.8
2017-Oct-21 10:56N 35°60' W 005°28'711.4
2017-Oct-21 10:20N 36°01' W 005°20'  
Track history (hours):
 
Tides and Currents Weather Stations Pressure Air Temp Water Temp Dewpoint Dewpoint Depression Visibility Wind Speed Wind Dir Waves Ship Positions

Moonray

Last reported at 2017-Oct-31 03:51 UTC. Time now 2017-Nov-19 21:50 UTC.
Position N 20°44' W 017°58'.
Warning: this ship's position is 19 days out of date.

Length 190 m; draft 9.7 m.

Type: Cargo ship. MMSI: 538003250.

Date/timePositionNaut miles runAvg speedWind from/ knotsBaromVisibWave heightAir tempDewpointWater temp
2017-Oct-31 03:51N 20°44' W 017°58'412.8
2017-Oct-31 03:30N 20°48' W 017°58'712.6
2017-Oct-31 02:56N 20°55' W 017°57'5513.1
2017-Oct-30 22:44N 21°46' W 017°34'4713.3
2017-Oct-30 19:12N 22°28' W 017°12'4213.3
2017-Oct-30 16:02N 23°08' W 016°57'413.5
2017-Oct-30 15:42N 23°12' W 016°55'21013.1
2017-Oct-29 23:40N 26°31' W 015°38'213.5
2017-Oct-29 23:30N 26°33' W 015°38'713.7
2017-Oct-29 22:59N 26°39' W 015°35'6713.5
2017-Oct-29 18:01N 27°43' W 015°10'112.9
2017-Oct-29 17:58N 27°43' W 015°10'612.9
2017-Oct-29 17:30N 27°49' W 015°08'613.0
2017-Oct-29 17:00N 27°55' W 015°05'713.2
2017-Oct-29 16:30N 28°01' W 015°03'713.5
2017-Oct-29 16:00N 28°08' W 014°60'713.3
2017-Oct-29 15:30N 28°14' W 014°57'713.2
2017-Oct-29 14:59N 28°20' W 014°55'713.4
2017-Oct-29 14:30N 28°26' W 014°52'613.2
2017-Oct-29 14:00N 28°32' W 014°49'713.3
2017-Oct-29 13:30N 28°38' W 014°46'713.3
2017-Oct-29 13:00N 28°45' W 014°43'713.2
2017-Oct-29 12:30N 28°51' W 014°40'713.1
2017-Oct-29 12:00N 28°57' W 014°37'713.2
2017-Oct-29 11:30N 29°03' W 014°34'713.0
2017-Oct-29 11:00N 29°08' W 014°31'613.0
2017-Oct-29 10:30N 29°14' W 014°28'713.1
2017-Oct-29 10:00N 29°20' W 014°25'713.0
2017-Oct-29 09:30N 29°26' W 014°21'612.8
2017-Oct-29 09:00N 29°32' W 014°19'613.0
2017-Oct-29 08:30N 29°38' W 014°16'813.1
2017-Oct-29 07:56N 29°45' W 014°13'513.0
2017-Oct-29 07:30N 29°50' W 014°10'713.0
2017-Oct-29 07:00N 29°56' W 014°07'612.9
2017-Oct-29 06:30N 30°02' W 014°04'813.0
2017-Oct-29 05:52N 30°10' W 014°00'513.1
2017-Oct-29 05:30N 30°14' W 013°58'713.2
2017-Oct-29 04:57N 30°20' W 013°54'613.2
2017-Oct-29 04:30N 30°26' W 013°51'713.2
2017-Oct-29 04:00N 30°32' W 013°47'13613.3
2017-Oct-28 17:47N 32°36' W 012°43'1013.4
2017-Oct-28 17:05N 32°45' W 012°38'313.4
2017-Oct-28 16:49N 32°48' W 012°36'1213.3
2017-Oct-28 15:54N 32°59' W 012°30'613.2
2017-Oct-28 15:26N 33°05' W 012°27'2013.4
2017-Oct-28 13:58N 33°23' W 012°18'1513.5
2017-Oct-28 12:52N 33°36' W 012°10'513.5
2017-Oct-28 12:29N 33°41' W 012°08'713.4
2017-Oct-28 11:59N 33°47' W 012°05'713.2
2017-Oct-28 11:26N 33°54' W 012°01'613.2
2017-Oct-28 10:59N 33°59' W 011°59'613.3
2017-Oct-28 10:30N 34°05' W 011°56'1113.3
2017-Oct-28 09:41N 34°15' W 011°50'213.4
2017-Oct-28 09:30N 34°17' W 011°49'713.3
2017-Oct-28 09:00N 34°23' W 011°46'1913.2
2017-Oct-28 07:36N 34°40' W 011°36'113.2
2017-Oct-28 07:30N 34°41' W 011°35'613.0
2017-Oct-28 07:00N 34°47' W 011°32'813.0
2017-Oct-28 06:26N 34°54' W 011°29'613.1
2017-Oct-28 06:00N 34°59' W 011°26'612.9
2017-Oct-28 05:30N 35°05' W 011°23'713.1
2017-Oct-28 04:56N 35°12' W 011°19'613.0
2017-Oct-28 04:30N 35°17' W 011°16'713.1
2017-Oct-28 04:00N 35°23' W 011°13'713.4
2017-Oct-28 03:30N 35°29' W 011°10'713.3
2017-Oct-28 02:58N 35°36' W 011°06'813.4
2017-Oct-28 02:24N 35°42' W 011°02'6613.4
2017-Oct-27 21:26N 36°43' W 010°29'5012.5
2017-Oct-27 17:27N 37°29' W 010°04'1712.5
2017-Oct-27 16:04N 37°44' W 009°55'112.6
2017-Oct-27 16:00N 37°45' W 009°54'712.6
2017-Oct-27 15:26N 37°52' W 009°51'612.7
2017-Oct-27 15:00N 37°57' W 009°48'612.7
2017-Oct-27 14:30N 38°02' W 009°44'612.9
2017-Oct-27 14:00N 38°08' W 009°41'612.9
2017-Oct-27 13:30N 38°14' W 009°38'612.8
2017-Oct-27 13:00N 38°20' W 009°34'612.8
2017-Oct-27 12:30N 38°26' W 009°31'612.9
2017-Oct-27 12:00N 38°32' W 009°28'611.6
2017-Oct-27 11:30N 38°37' W 009°24'5 9.1
2017-Oct-27 11:00N 38°40' W 009°19'612.6
2017-Oct-27 10:30N 38°41' W 009°11'4 7.5
2017-Oct-27 10:00N 38°42' W 009°07'0 0.2
2017-Oct-27 09:28N 38°42' W 009°07'0 0.0
2017-Oct-27 08:58N 38°42' W 009°07'0 0.1
2017-Oct-27 08:28N 38°42' W 009°07'0 0.2
2017-Oct-27 07:58N 38°42' W 009°07'0 0.1
2017-Oct-27 07:28N 38°42' W 009°06'0 0.1
2017-Oct-27 06:58N 38°42' W 009°06'0 0.0
2017-Oct-27 06:28N 38°42' W 009°06'0 0.0
2017-Oct-27 05:58N 38°42' W 009°06'0 0.0
2017-Oct-27 05:28N 38°42' W 009°06'0 0.0
2017-Oct-27 04:58N 38°42' W 009°06'0 0.0
2017-Oct-27 04:25N 38°42' W 009°06'0 0.0
2017-Oct-27 03:58N 38°42' W 009°06'0 0.1
2017-Oct-27 03:25N 38°42' W 009°06'0 0.1
2017-Oct-27 02:55N 38°42' W 009°07'0 0.3
2017-Oct-27 02:28N 38°42' W 009°07'0 0.1
2017-Oct-27 01:58N 38°42' W 009°07'0 0.1
2017-Oct-27 01:28N 38°42' W 009°07'0 0.0
2017-Oct-27 00:52N 38°42' W 009°07'0 0.0
2017-Oct-27 00:28N 38°42' W 009°07'0 0.0
2017-Oct-26 23:58N 38°42' W 009°07'0 0.0
2017-Oct-26 23:28N 38°42' W 009°07'0 0.0
2017-Oct-26 22:58N 38°42' W 009°07'0 0.0
2017-Oct-26 22:25N 38°42' W 009°07'0 0.0
2017-Oct-26 21:58N 38°42' W 009°07'0 0.0
2017-Oct-26 21:28N 38°42' W 009°07'0 0.0
2017-Oct-26 20:58N 38°42' W 009°07'0 0.1
2017-Oct-26 20:25N 38°42' W 009°07'0 0.1
2017-Oct-26 19:55N 38°42' W 009°07'0 0.3
2017-Oct-26 19:28N 38°42' W 009°07'0 0.2
2017-Oct-26 18:58N 38°42' W 009°06'0 0.0
2017-Oct-26 18:28N 38°42' W 009°06'0 0.0
2017-Oct-26 17:58N 38°42' W 009°06'0 0.0
2017-Oct-26 17:28N 38°42' W 009°06'0 0.0
2017-Oct-26 16:58N 38°42' W 009°06'0 0.0
2017-Oct-26 16:28N 38°42' W 009°06'0 0.0
2017-Oct-26 15:58N 38°42' W 009°06'0 0.1
2017-Oct-26 15:25N 38°42' W 009°06'0 0.1
2017-Oct-26 14:58N 38°42' W 009°06'0 0.1
2017-Oct-26 14:25N 38°42' W 009°07'0 0.2
2017-Oct-26 13:58N 38°42' W 009°07'0 0.2
2017-Oct-26 13:28N 38°42' W 009°07'0 0.1
2017-Oct-26 12:58N 38°42' W 009°07'0 0.0
2017-Oct-26 12:28N 38°42' W 009°07'0 0.0
2017-Oct-26 11:58N 38°42' W 009°07'0 0.0
2017-Oct-26 11:28N 38°42' W 009°07'0 0.0
2017-Oct-26 10:58N 38°42' W 009°07'0 0.0
2017-Oct-26 10:28N 38°42' W 009°07'0 0.0
2017-Oct-26 09:58N 38°42' W 009°07'0 0.1
2017-Oct-26 09:28N 38°42' W 009°07'0 0.0
2017-Oct-26 08:58N 38°42' W 009°07'0 0.1
2017-Oct-26 08:25N 38°42' W 009°07'0 0.0
2017-Oct-26 07:58N 38°42' W 009°07'0 0.1
2017-Oct-26 07:28N 38°42' W 009°07'0 0.2
2017-Oct-26 06:55N 38°42' W 009°07'0 0.2
2017-Oct-26 06:28N 38°42' W 009°06'0 0.0
2017-Oct-26 05:55N 38°42' W 009°06'0 0.0
2017-Oct-26 05:28N 38°42' W 009°06'0 0.0
2017-Oct-26 04:58N 38°42' W 009°06'0 0.0
2017-Oct-26 04:28N 38°42' W 009°06'0 0.0
2017-Oct-26 03:58N 38°42' W 009°06'0 0.0
2017-Oct-26 03:22N 38°42' W 009°06'0 0.0
2017-Oct-26 02:58N 38°42' W 009°06'0 0.0
2017-Oct-26 02:28N 38°42' W 009°06'0 0.3
2017-Oct-26 01:58N 38°42' W 009°07'0 0.2
2017-Oct-26 01:28N 38°42' W 009°07'0 0.0
2017-Oct-26 00:55N 38°42' W 009°07'0 0.0
2017-Oct-26 00:28N 38°42' W 009°07'0 0.0
2017-Oct-25 23:58N 38°42' W 009°07'0 0.0
2017-Oct-25 23:28N 38°42' W 009°07'0 0.0
2017-Oct-25 22:58N 38°42' W 009°07'0 0.0
2017-Oct-25 22:28N 38°42' W 009°07'0 0.0
2017-Oct-25 21:58N 38°42' W 009°07'0 0.0
2017-Oct-25 21:28N 38°42' W 009°07'0 0.0
2017-Oct-25 20:58N 38°42' W 009°07'0 0.0
2017-Oct-25 20:28N 38°42' W 009°07'0 0.1
2017-Oct-25 19:58N 38°42' W 009°07'0 0.3
2017-Oct-25 19:22N 38°42' W 009°06'0 0.1
2017-Oct-25 18:58N 38°42' W 009°06'0 0.0
2017-Oct-25 18:28N 38°42' W 009°06'0 0.0
2017-Oct-25 17:58N 38°42' W 009°06'0 0.0
2017-Oct-25 17:28N 38°42' W 009°06'0 0.0
2017-Oct-25 16:58N 38°42' W 009°06'0 0.0
2017-Oct-25 16:28N 38°42' W 009°06'0 0.0
2017-Oct-25 15:58N 38°42' W 009°06'0 0.0
2017-Oct-25 15:28N 38°42' W 009°06'0 0.0
2017-Oct-25 14:58N 38°42' W 009°06'0 0.1
2017-Oct-25 14:28N 38°42' W 009°06'0 0.0
2017-Oct-25 13:58N 38°42' W 009°06'0 0.0
2017-Oct-25 13:25N 38°42' W 009°06'0 0.6
2017-Oct-25 12:58N 38°42' W 009°07'0 0.1
2017-Oct-25 12:16N 38°42' W 009°07'0 0.1
2017-Oct-25 11:58N 38°42' W 009°07'0 0.0
2017-Oct-25 11:25N 38°42' W 009°07'0 0.0
2017-Oct-25 10:49N 38°42' W 009°07'0 0.0
2017-Oct-25 10:28N 38°42' W 009°07'0 0.0
2017-Oct-25 09:55N 38°42' W 009°07'0 0.0
2017-Oct-25 09:28N 38°42' W 009°07'0 0.0
2017-Oct-25 08:58N 38°42' W 009°07'0 0.0
2017-Oct-25 08:28N 38°42' W 009°07'0 0.0
2017-Oct-25 07:58N 38°42' W 009°07'0 0.1
2017-Oct-25 07:19N 38°42' W 009°07'0 0.1
2017-Oct-25 06:58N 38°42' W 009°07'0 0.2
2017-Oct-25 06:28N 38°42' W 009°07'0 0.1
2017-Oct-25 05:58N 38°42' W 009°06'0 0.0
2017-Oct-25 05:28N 38°42' W 009°06'0 0.0
2017-Oct-25 04:58N 38°42' W 009°06'0 0.0
2017-Oct-25 04:28N 38°42' W 009°06'0 0.0
2017-Oct-25 03:58N 38°42' W 009°06'0 0.0
2017-Oct-25 03:28N 38°42' W 009°06'0 0.0
2017-Oct-25 02:58N 38°42' W 009°06'0 0.0
2017-Oct-25 02:22N 38°42' W 009°06'0 0.0
2017-Oct-25 01:58N 38°42' W 009°06'0 0.4
2017-Oct-25 01:25N 38°42' W 009°07'0 0.1
2017-Oct-25 00:58N 38°42' W 009°07'0 0.0
2017-Oct-25 00:28N 38°42' W 009°07'0 0.0
2017-Oct-24 23:55N 38°42' W 009°07'0 0.0
2017-Oct-24 23:28N 38°42' W 009°07'0 0.0
2017-Oct-24 22:58N 38°42' W 009°07'0 0.0
2017-Oct-24 22:28N 38°42' W 009°07'0 0.0
2017-Oct-24 21:58N 38°42' W 009°07'0 0.0
2017-Oct-24 21:28N 38°42' W 009°07'0 0.1
2017-Oct-24 20:58N 38°42' W 009°07'0 0.1
2017-Oct-24 20:28N 38°42' W 009°07'0 0.0
2017-Oct-24 19:58N 38°42' W 009°07'0 0.0
2017-Oct-24 19:28N 38°42' W 009°07'0 0.3
2017-Oct-24 18:55N 38°42' W 009°06'0 0.1
2017-Oct-24 18:28N 38°42' W 009°06'0 0.1
2017-Oct-24 17:58N 38°42' W 009°06'0 0.0
2017-Oct-24 17:22N 38°42' W 009°06'0 0.0
2017-Oct-24 16:55N 38°42' W 009°06'0 0.0
2017-Oct-24 16:28N 38°42' W 009°06'0 0.0
2017-Oct-24 15:58N 38°42' W 009°06'0 0.0
2017-Oct-24 15:22N 38°42' W 009°06'0 0.0
2017-Oct-24 14:46N 38°42' W 009°06'0 0.1
2017-Oct-24 14:28N 38°42' W 009°06'0 0.0
2017-Oct-24 13:49N 38°42' W 009°06'0 0.0
2017-Oct-24 13:22N 38°42' W 009°06'0 0.2
2017-Oct-24 12:55N 38°41' W 009°07'0 0.2
2017-Oct-24 12:28N 38°41' W 009°07'0 0.1
2017-Oct-24 11:58N 38°42' W 009°07'0 0.0
2017-Oct-24 11:28N 38°42' W 009°07'0 0.1
2017-Oct-24 10:55N 38°42' W 009°07'0 0.0
2017-Oct-24 10:28N 38°42' W 009°07'0 0.0
2017-Oct-24 09:58N 38°42' W 009°07'0 0.0
2017-Oct-24 09:28N 38°42' W 009°07'0 0.0
2017-Oct-24 08:58N 38°42' W 009°07'0 0.0
2017-Oct-24 08:25N 38°42' W 009°07'0 0.0
2017-Oct-24 07:58N 38°42' W 009°07'0 0.0
2017-Oct-24 07:28N 38°42' W 009°07'0 0.0
2017-Oct-24 06:58N 38°42' W 009°07'0 0.1
2017-Oct-24 06:25N 38°42' W 009°07'0 0.0
2017-Oct-24 05:58N 38°42' W 009°07'0 0.3
2017-Oct-24 05:28N 38°42' W 009°07'0 0.1
2017-Oct-24 04:58N 38°42' W 009°06'0 0.0
2017-Oct-24 04:28N 38°42' W 009°06'0 0.0
2017-Oct-24 03:58N 38°42' W 009°06'0 0.0
2017-Oct-24 03:28N 38°42' W 009°06'0 0.0
2017-Oct-24 02:58N 38°42' W 009°06'0 0.0
2017-Oct-24 02:28N 38°42' W 009°06'0 0.0
2017-Oct-24 01:58N 38°42' W 009°06'0 0.1
2017-Oct-24 01:28N 38°42' W 009°06'0 0.1
2017-Oct-24 00:58N 38°42' W 009°07'0 0.1
2017-Oct-24 00:28N 38°42' W 009°07'0 0.2
2017-Oct-23 23:58N 38°42' W 009°07'0 0.1
2017-Oct-23 23:28N 38°42' W 009°07'0 0.0
2017-Oct-23 22:58N 38°42' W 009°07'0 0.1
2017-Oct-23 22:28N 38°42' W 009°07'0 0.0
2017-Oct-23 21:58N 38°42' W 009°07'0 0.0
2017-Oct-23 21:28N 38°42' W 009°07'0 0.0
2017-Oct-23 20:55N 38°42' W 009°07'0 0.0
2017-Oct-23 20:28N 38°42' W 009°07'0 0.0
2017-Oct-23 19:58N 38°42' W 009°07'0 0.0
2017-Oct-23 19:25N 38°42' W 009°07'0 0.1
2017-Oct-23 18:58N 38°42' W 009°07'0 0.1
2017-Oct-23 18:28N 38°42' W 009°07'0 0.3
2017-Oct-23 17:58N 38°42' W 009°06'0 0.1
2017-Oct-23 17:25N 38°42' W 009°06'0 0.0
2017-Oct-23 16:58N 38°42' W 009°06'0 0.0
2017-Oct-23 16:28N 38°42' W 009°06'0 0.0
2017-Oct-23 15:58N 38°42' W 009°06'0 0.0
2017-Oct-23 15:19N 38°42' W 009°06'0 0.0
2017-Oct-23 14:58N 38°42' W 009°06'0 0.0
2017-Oct-23 14:28N 38°42' W 009°06'0 0.0
2017-Oct-23 13:58N 38°42' W 009°06'0 0.1
2017-Oct-23 13:28N 38°42' W 009°06'0 0.1
2017-Oct-23 12:58N 38°42' W 009°06'0 0.1
2017-Oct-23 12:25N 38°42' W 009°07'0 0.1
2017-Oct-23 11:58N 38°41' W 009°07'0 0.2
2017-Oct-23 11:28N 38°42' W 009°07'0 0.1
2017-Oct-23 10:58N 38°42' W 009°07'0 0.0
2017-Oct-23 10:28N 38°42' W 009°07'0 0.0
2017-Oct-23 09:58N 38°42' W 009°07'0 0.0
2017-Oct-23 09:25N 38°42' W 009°07'0 0.0
2017-Oct-23 08:58N 38°42' W 009°07'0 0.0
2017-Oct-23 08:30N 38°42' W 009°07'0 0.0
2017-Oct-23 08:00N 38°42' W 009°07'0 0.0
2017-Oct-23 07:30N 38°42' W 009°07'0 0.0
2017-Oct-23 07:00N 38°42' W 009°07'0 0.1
2017-Oct-23 06:30N 38°42' W 009°07'0 0.0
2017-Oct-23 06:00N 38°42' W 009°07'0 0.1
2017-Oct-23 05:30N 38°42' W 009°07'0 0.3
2017-Oct-23 05:00N 38°42' W 009°06'0 0.1
2017-Oct-23 04:27N 38°42' W 009°06'0 0.1
2017-Oct-23 04:00N 38°42' W 009°06'0 0.0
2017-Oct-23 03:30N 38°42' W 009°06'0 0.0
2017-Oct-23 03:00N 38°42' W 009°06'0 0.0
2017-Oct-23 02:30N 38°42' W 009°06'0 0.0
2017-Oct-23 02:00N 38°42' W 009°06'0 0.0
2017-Oct-23 01:30N 38°42' W 009°06'0 0.0
2017-Oct-23 01:00N 38°42' W 009°06'0 0.0
2017-Oct-23 00:30N 38°42' W 009°06'0 0.1
2017-Oct-22 23:57N 38°42' W 009°06'0 0.3
2017-Oct-22 23:30N 38°42' W 009°07'0 0.1
2017-Oct-22 23:00N 38°42' W 009°07'0 0.0
2017-Oct-22 22:30N 38°42' W 009°07'0 0.0
2017-Oct-22 22:00N 38°42' W 009°07'0 0.1
2017-Oct-22 21:30N 38°42' W 009°07'0 0.0
2017-Oct-22 21:00N 38°42' W 009°07'0 0.0
2017-Oct-22 20:30N 38°42' W 009°07'0 0.0
2017-Oct-22 20:00N 38°42' W 009°07'0 0.0
2017-Oct-22 19:30N 38°42' W 009°07'0 0.0
2017-Oct-22 19:00N 38°42' W 009°07'0 0.1
2017-Oct-22 18:31N 38°42' W 009°07'2 3.3
2017-Oct-22 18:01N 38°42' W 009°09'510.4
2017-Oct-22 17:30N 38°41' W 009°15'611.5
2017-Oct-22 17:01N 38°38' W 009°22'3 5.4
2017-Oct-22 16:31N 38°39' W 009°25'4 8.7
2017-Oct-22 16:01N 38°35' W 009°26'510.2
2017-Oct-22 15:31N 38°30' W 009°26'5 9.6
2017-Oct-22 15:01N 38°25' W 009°26'5 9.0
2017-Oct-22 14:31N 38°20' W 009°26'5 9.4
2017-Oct-22 14:01N 38°16' W 009°26'4 8.9
2017-Oct-22 13:31N 38°11' W 009°26'5 9.1
2017-Oct-22 13:01N 38°07' W 009°26'5 9.4
2017-Oct-22 12:31N 38°02' W 009°26'5 9.5
2017-Oct-22 12:00N 37°57' W 009°26'5 9.1
2017-Oct-22 11:31N 37°53' W 009°26'4 9.0
2017-Oct-22 11:01N 37°48' W 009°26'4 8.5
2017-Oct-22 10:31N 37°44' W 009°26'4 8.6
2017-Oct-22 10:01N 37°40' W 009°26'7 8.9
2017-Oct-22 09:15N 37°33' W 009°26'2 8.8
2017-Oct-22 09:00N 37°31' W 009°26'8 9.0
2017-Oct-22 08:05N 37°23' W 009°27'1 9.8
2017-Oct-22 08:01N 37°22' W 009°27'18 9.3
2017-Oct-22 06:03N 37°03' W 009°27'0 9.1
2017-Oct-22 06:00N 37°03' W 009°27'6 9.0
2017-Oct-22 05:19N 36°57' W 009°26'3 8.6
2017-Oct-22 05:01N 36°55' W 009°24'10 8.4
2017-Oct-22 03:52N 36°47' W 009°18'4 8.8
2017-Oct-22 03:23N 36°44' W 009°14'14 8.9
2017-Oct-22 01:48N 36°37' W 008°58'3 8.6
2017-Oct-22 01:27N 36°36' W 008°55'17111.8
2017-Oct-21 10:56N 35°60' W 005°28'711.4
2017-Oct-21 10:20N 36°01' W 005°20'  

Dump ship's entire track history